createdAt,value
2018-07-19T00:00:52.721Z,52.20
2018-07-19T00:05:58.436Z,52.10
2018-07-19T00:11:02.011Z,51.70
2018-07-19T00:16:05.158Z,51.90
2018-07-19T00:21:08.990Z,52.70
2018-07-19T00:26:13.793Z,52.50
2018-07-19T00:31:17.545Z,53.10
2018-07-19T00:36:20.334Z,53.00
2018-07-19T00:41:24.235Z,53.60
2018-07-19T00:46:28.806Z,53.00
2018-07-19T00:51:33.183Z,53.60
2018-07-19T00:56:38.851Z,53.30
2018-07-19T01:01:41.837Z,53.60
2018-07-19T01:06:44.585Z,53.60
2018-07-19T01:11:48.913Z,53.30
2018-07-19T01:16:53.506Z,54.10
2018-07-19T01:21:58.075Z,53.80
2018-07-19T01:27:01.448Z,55.00
2018-07-19T01:32:06.271Z,55.70
2018-07-19T01:37:12.954Z,55.00
2018-07-19T01:42:25.547Z,55.30
2018-07-19T01:47:29.356Z,55.00
2018-07-19T01:52:33.975Z,55.20
2018-07-19T01:57:36.627Z,55.10
2018-07-19T02:02:40.771Z,55.40
2018-07-19T02:07:44.868Z,55.40
2018-07-19T02:12:49.926Z,55.50
2018-07-19T02:17:52.904Z,55.40
2018-07-19T02:22:56.622Z,55.90
2018-07-19T02:28:00.588Z,55.90
2018-07-19T02:33:06.048Z,55.90
2018-07-19T02:38:09.651Z,56.40
2018-07-19T02:43:16.845Z,56.10
2018-07-19T02:48:20.883Z,56.00
2018-07-19T02:53:24.758Z,55.70
2018-07-19T02:58:29.554Z,56.30
2018-07-19T03:03:32.549Z,56.20
2018-07-19T03:08:38.659Z,56.40
2018-07-19T03:13:42.334Z,56.40
2018-07-19T03:18:45.440Z,56.60
2018-07-19T03:23:51.292Z,56.70
2018-07-19T03:28:54.776Z,56.90
2018-07-19T03:33:58.467Z,57.00
2018-07-19T03:39:00.967Z,57.60
2018-07-19T03:44:03.445Z,56.80
2018-07-19T03:49:05.924Z,57.20
2018-07-19T03:54:08.405Z,57.50
2018-07-19T03:59:10.896Z,57.70
2018-07-19T04:04:13.383Z,58.00
2018-07-19T04:09:15.865Z,58.10
2018-07-19T04:14:18.349Z,57.80
2018-07-19T04:19:20.837Z,58.00
2018-07-19T04:24:23.335Z,58.10
2018-07-19T04:29:26.213Z,58.10
2018-07-19T04:34:29.812Z,58.50
2018-07-19T04:39:32.697Z,59.20
2018-07-19T04:44:38.679Z,58.80
2018-07-19T04:49:42.474Z,58.50
2018-07-19T04:54:45.363Z,58.60
2018-07-19T04:59:48.723Z,58.90
2018-07-19T05:04:54.173Z,58.80
2018-07-19T05:09:57.511Z,59.50
2018-07-19T05:15:03.270Z,59.30
2018-07-19T05:20:08.612Z,58.80
2018-07-19T05:25:12.419Z,58.80
2018-07-19T05:30:16.639Z,58.70
2018-07-19T05:35:19.675Z,58.90
2018-07-19T05:40:23.281Z,58.80
2018-07-19T05:45:26.752Z,58.70
2018-07-19T05:50:30.503Z,58.70
2018-07-19T05:55:35.241Z,59.00
2018-07-19T06:00:39.108Z,59.00
2018-07-19T06:05:42.764Z,59.40
2018-07-19T06:10:46.953Z,59.20
2018-07-19T06:15:52.374Z,58.40
2018-07-19T06:21:00.752Z,57.80
2018-07-19T06:26:06.877Z,57.70
2018-07-19T06:31:12.615Z,57.80
2018-07-19T06:36:16.516Z,57.00
2018-07-19T06:41:21.806Z,57.30
2018-07-19T06:46:26.021Z,56.70
2018-07-19T06:51:31.216Z,56.20
2018-07-19T06:56:35.959Z,55.60
2018-07-19T07:01:38.442Z,55.30
2018-07-19T07:06:40.926Z,54.60
2018-07-19T07:11:43.417Z,53.60
2018-07-19T07:16:46.548Z,53.60
2018-07-19T07:21:49.104Z,53.10
2018-07-19T07:26:51.596Z,50.40
2018-07-19T07:31:58.345Z,50.50
2018-07-19T07:37:02.282Z,48.80
2018-07-19T07:42:10.846Z,47.70
2018-07-19T07:47:16.638Z,47.70
2018-07-19T07:57:29.563Z,46.40
2018-07-19T08:02:36.590Z,46.60
2018-07-19T08:07:41.604Z,45.70
2018-07-19T08:12:46.115Z,45.60
2018-07-19T08:17:52.160Z,45.40
2018-07-19T08:22:56.312Z,44.20
2018-07-19T08:28:04.259Z,44.20
2018-07-19T08:33:07.975Z,43.50
2018-07-19T08:38:16.698Z,43.50
2018-07-19T08:43:23.117Z,42.50
2018-07-19T08:48:26.649Z,41.50
2018-07-19T08:53:31.758Z,40.10
2018-07-19T08:58:37.295Z,40.40
2018-07-19T09:03:41.062Z,40.30
2018-07-19T09:13:53.689Z,39.40
2018-07-19T09:18:59.390Z,39.60
2018-07-19T09:24:05.394Z,38.60
2018-07-19T09:29:11.173Z,38.60
2018-07-19T09:34:16.330Z,37.80
2018-07-19T09:39:19.724Z,36.70
2018-07-19T09:44:31.618Z,37.80
2018-07-19T09:49:37.635Z,36.90
2018-07-19T09:54:47.571Z,36.80
2018-07-19T09:59:51.903Z,36.10
2018-07-19T10:04:55.210Z,35.20
2018-07-19T10:10:00.893Z,34.90
2018-07-19T10:15:04.713Z,35.00
2018-07-19T10:20:14.244Z,33.90
2018-07-19T10:25:20.073Z,34.40
2018-07-19T10:30:25.515Z,33.60
2018-07-19T10:35:29.735Z,33.20
2018-07-19T10:40:34.181Z,33.70
2018-07-19T10:45:37.390Z,34.30
2018-07-19T10:50:40.874Z,33.00
2018-07-19T10:55:44.555Z,32.80
2018-07-19T11:00:49.848Z,32.60
2018-07-19T11:05:54.765Z,31.50
2018-07-19T11:10:58.493Z,32.30
2018-07-19T11:16:08.528Z,32.80
2018-07-19T11:21:12.199Z,32.40
2018-07-19T11:26:18.375Z,33.10
2018-07-19T11:31:21.915Z,32.20
2018-07-19T11:36:26.799Z,31.10
2018-07-19T11:41:29.862Z,31.90
2018-07-19T11:46:37.515Z,31.10
2018-07-19T11:51:42.176Z,31.60
2018-07-19T11:56:48.048Z,31.50
2018-07-19T12:01:51.881Z,31.70
2018-07-19T12:06:57.173Z,32.10
2018-07-19T12:12:01.120Z,32.30
2018-07-19T12:17:05.593Z,31.80
2018-07-19T12:22:12.405Z,31.00
2018-07-19T12:27:16.752Z,31.60
2018-07-19T12:32:23.299Z,32.20
2018-07-19T12:37:27.837Z,32.00
2018-07-19T12:42:35.803Z,31.20
2018-07-19T12:47:39.771Z,30.20
2018-07-19T12:52:44.590Z,30.80
2018-07-19T12:57:50.153Z,30.90
2018-07-19T13:02:53.228Z,31.00
2018-07-19T13:07:58.068Z,31.10
2018-07-19T13:13:02.328Z,31.10
2018-07-19T13:18:06.144Z,31.30
2018-07-19T13:23:14.410Z,31.40
2018-07-19T13:28:18.877Z,30.10
2018-07-19T13:33:22.256Z,30.10
2018-07-19T13:38:27.019Z,30.30
2018-07-19T13:43:33.605Z,29.50
2018-07-19T13:48:38.928Z,29.20
2018-07-19T13:53:55.722Z,29.80
2018-07-19T13:58:59.278Z,29.90
2018-07-19T14:04:07.831Z,29.70
2018-07-19T14:09:14.974Z,28.70
2018-07-19T14:14:21.399Z,29.70
2018-07-19T14:19:27.673Z,29.20
2018-07-19T14:24:32.732Z,29.20
2018-07-19T14:29:41.203Z,29.20
2018-07-19T14:34:47.013Z,29.90
2018-07-19T14:39:51.162Z,29.90
2018-07-19T14:44:55.345Z,30.00
2018-07-19T14:49:59.400Z,30.00
2018-07-19T14:55:06.931Z,30.20
2018-07-19T15:00:12.068Z,30.00
2018-07-19T15:05:19.075Z,29.70
2018-07-19T15:10:23.230Z,29.60
2018-07-19T15:15:28.029Z,29.70
2018-07-19T15:20:34.629Z,29.20
2018-07-19T15:25:41.242Z,29.20
2018-07-19T15:30:46.083Z,30.00
2018-07-19T15:35:52.629Z,29.80
2018-07-19T15:46:09.903Z,29.50
2018-07-19T15:51:16.808Z,29.10
2018-07-19T15:56:22.739Z,30.00
2018-07-19T16:01:26.325Z,29.60
2018-07-19T16:06:33.700Z,29.60
2018-07-19T16:11:41.579Z,29.80
2018-07-19T16:16:47.346Z,29.60
2018-07-19T16:21:53.902Z,30.00
2018-07-19T16:26:59.072Z,29.90
2018-07-19T16:32:05.198Z,30.70
2018-07-19T16:37:10.614Z,30.90
2018-07-19T16:42:20.316Z,30.60
2018-07-19T16:47:24.381Z,31.10
2018-07-19T16:52:28.911Z,31.00
2018-07-19T16:57:33.245Z,31.30
2018-07-19T17:02:37.484Z,31.10
2018-07-19T17:07:43.058Z,31.30
2018-07-19T17:12:47.531Z,31.40
2018-07-19T17:17:56.308Z,32.20
2018-07-19T17:23:00.999Z,31.50
2018-07-19T17:28:09.433Z,32.80
2018-07-19T17:33:13.803Z,32.70
2018-07-19T17:38:19.866Z,32.80
2018-07-19T17:43:23.571Z,32.80
2018-07-19T17:48:27.699Z,32.00
2018-07-19T17:53:34.794Z,32.10
2018-07-19T17:58:37.294Z,32.10
2018-07-19T18:03:39.795Z,32.20
2018-07-19T18:08:43.049Z,32.60
2018-07-19T18:13:45.559Z,32.50
2018-07-19T18:29:09.425Z,34.70
2018-07-19T18:34:23.398Z,35.20
2018-07-19T18:39:34.944Z,34.80
2018-07-19T18:44:37.605Z,35.10
2018-07-19T18:49:40.110Z,35.20
2018-07-19T18:54:42.630Z,35.20
2018-07-19T18:59:45.114Z,35.50
2018-07-19T19:04:47.619Z,35.60
2018-07-19T19:09:50.118Z,35.80
2018-07-19T19:14:52.614Z,36.10
2018-07-19T19:19:55.883Z,37.10
2018-07-19T19:24:58.365Z,37.10
2018-07-19T19:30:00.891Z,37.30
2018-07-19T19:35:03.393Z,37.70
2018-07-19T19:40:11.492Z,38.90
2018-07-19T19:45:14.053Z,40.00
2018-07-19T19:50:18.724Z,40.70
2018-07-19T19:55:24.256Z,41.30
2018-07-19T20:00:35.513Z,41.80
2018-07-19T20:05:38.080Z,42.20
2018-07-19T20:10:43.165Z,42.50
2018-07-19T20:15:49.340Z,42.90
2018-07-19T20:20:54.825Z,43.60
2018-07-19T20:26:05.281Z,43.90
2018-07-19T20:31:11.208Z,44.10
2018-07-19T20:36:17.284Z,44.40
2018-07-19T20:41:21.975Z,44.50
2018-07-19T20:46:31.978Z,44.90
2018-07-19T20:51:37.769Z,46.00
2018-07-19T20:56:41.042Z,45.70
2018-07-19T21:01:44.298Z,45.70
2018-07-19T21:06:49.351Z,45.70
2018-07-19T21:12:01.152Z,45.70
2018-07-19T21:17:05.600Z,45.80
2018-07-19T21:22:11.149Z,45.90
2018-07-19T21:27:16.212Z,46.10
2018-07-19T21:32:20.749Z,46.10
2018-07-19T21:37:26.078Z,46.10
2018-07-19T21:42:29.849Z,46.40
2018-07-19T21:47:34.684Z,46.50
2018-07-19T21:52:39.183Z,46.80
2018-07-19T21:57:42.817Z,47.10
2018-07-19T22:02:46.069Z,47.30
2018-07-19T22:12:54.785Z,47.40
2018-07-19T22:17:57.262Z,47.40
2018-07-19T22:23:00.552Z,47.40
2018-07-19T22:28:03.068Z,47.40
2018-07-19T22:33:05.541Z,47.90
2018-07-19T22:38:08.050Z,48.30
2018-07-19T22:43:10.540Z,48.80
2018-07-19T22:48:13.046Z,49.20
2018-07-19T22:53:15.531Z,49.20
2018-07-19T22:58:18.008Z,49.40
2018-07-19T23:03:20.521Z,49.50
2018-07-19T23:08:23.011Z,49.70
2018-07-19T23:13:25.501Z,50.10
2018-07-19T23:18:27.976Z,50.20
2018-07-19T23:23:30.464Z,50.40
2018-07-19T23:28:32.950Z,50.50
2018-07-19T23:33:35.457Z,50.40
2018-07-19T23:38:37.942Z,50.50
2018-07-19T23:43:40.424Z,50.70
2018-07-19T23:48:42.930Z,50.90
2018-07-19T23:53:45.444Z,51.30
2018-07-19T23:58:48.692Z,50.90
